sensor_id;sensor_type;location;lat;lon;timestamp;P1;durP1;ratioP1;P2;durP2;ratioP2
65599;SDS011;52272;-29.642;-50.764;2022-07-12T00:00:27;7.22;;;2.22;;
65599;SDS011;52272;-29.642;-50.764;2022-07-12T00:03:01;3.67;;;2.00;;
65599;SDS011;52272;-29.642;-50.764;2022-07-12T00:05:32;10.52;;;2.58;;
65599;SDS011;52272;-29.642;-50.764;2022-07-12T00:08:03;5.75;;;2.10;;
65599;SDS011;52272;-29.642;-50.764;2022-07-12T00:10:35;4.43;;;1.90;;
65599;SDS011;52272;-29.642;-50.764;2022-07-12T00:13:09;7.43;;;2.10;;
65599;SDS011;52272;-29.642;-50.764;2022-07-12T00:15:46;6.10;;;2.05;;
65599;SDS011;52272;-29.642;-50.764;2022-07-12T00:18:18;7.40;;;2.20;;
65599;SDS011;52272;-29.642;-50.764;2022-07-12T00:20:52;4.68;;;2.25;;
65599;SDS011;52272;-29.642;-50.764;2022-07-12T00:23:23;11.18;;;2.50;;
65599;SDS011;52272;-29.642;-50.764;2022-07-12T00:25:56;6.88;;;2.17;;
65599;SDS011;52272;-29.642;-50.764;2022-07-12T00:28:36;4.55;;;1.80;;
65599;SDS011;52272;-29.642;-50.764;2022-07-12T00:31:10;6.07;;;1.92;;
65599;SDS011;52272;-29.642;-50.764;2022-07-12T00:33:42;5.28;;;2.08;;
65599;SDS011;52272;-29.642;-50.764;2022-07-12T00:36:14;7.88;;;2.30;;
65599;SDS011;52272;-29.642;-50.764;2022-07-12T00:38:54;7.93;;;2.42;;
65599;SDS011;52272;-29.642;-50.764;2022-07-12T00:41:25;9.27;;;2.10;;
65599;SDS011;52272;-29.642;-50.764;2022-07-12T00:43:57;7.97;;;1.98;;
65599;SDS011;52272;-29.642;-50.764;2022-07-12T00:46:31;3.53;;;2.20;;
65599;SDS011;52272;-29.642;-50.764;2022-07-12T00:49:02;5.68;;;2.50;;
65599;SDS011;52272;-29.642;-50.764;2022-07-12T00:51:36;4.80;;;1.77;;
65599;SDS011;52272;-29.642;-50.764;2022-07-12T00:54:10;5.72;;;2.28;;
65599;SDS011;52272;-29.642;-50.764;2022-07-12T00:56:40;14.77;;;2.72;;
65599;SDS011;52272;-29.642;-50.764;2022-07-12T00:59:11;25.98;;;2.72;;
65599;SDS011;52272;-29.642;-50.764;2022-07-12T01:01:42;14.73;;;2.22;;
65599;SDS011;52272;-29.642;-50.764;2022-07-12T01:04:13;8.70;;;2.00;;
65599;SDS011;52272;-29.642;-50.764;2022-07-12T01:06:47;12.18;;;2.10;;
65599;SDS011;52272;-29.642;-50.764;2022-07-12T01:09:20;5.70;;;1.75;;
65599;SDS011;52272;-29.642;-50.764;2022-07-12T01:11:50;12.05;;;2.00;;
65599;SDS011;52272;-29.642;-50.764;2022-07-12T01:14:21;5.35;;;2.17;;
65599;SDS011;52272;-29.642;-50.764;2022-07-12T01:16:52;5.15;;;2.00;;
65599;SDS011;52272;-29.642;-50.764;2022-07-12T01:19:26;7.80;;;2.35;;
65599;SDS011;52272;-29.642;-50.764;2022-07-12T01:21:57;6.65;;;2.35;;
65599;SDS011;52272;-29.642;-50.764;2022-07-12T01:24:32;5.35;;;1.98;;
65599;SDS011;52272;-29.642;-50.764;2022-07-12T01:27:04;4.28;;;1.30;;
65599;SDS011;52272;-29.642;-50.764;2022-07-12T01:29:38;3.63;;;1.45;;
65599;SDS011;52272;-29.642;-50.764;2022-07-12T01:32:13;3.85;;;1.00;;
65599;SDS011;52272;-29.642;-50.764;2022-07-12T01:35:01;2.25;;;1.10;;
65599;SDS011;52272;-29.642;-50.764;2022-07-12T01:37:38;2.80;;;1.13;;
65599;SDS011;52272;-29.642;-50.764;2022-07-12T01:40:13;7.22;;;1.98;;
65599;SDS011;52272;-29.642;-50.764;2022-07-12T01:42:44;10.18;;;2.13;;
65599;SDS011;52272;-29.642;-50.764;2022-07-12T01:45:16;5.75;;;1.77;;
65599;SDS011;52272;-29.642;-50.764;2022-07-12T01:47:46;4.70;;;1.60;;
65599;SDS011;52272;-29.642;-50.764;2022-07-12T01:50:18;5.22;;;1.58;;
65599;SDS011;52272;-29.642;-50.764;2022-07-12T01:52:49;5.03;;;1.30;;
65599;SDS011;52272;-29.642;-50.764;2022-07-12T01:55:20;5.45;;;1.38;;
65599;SDS011;52272;-29.642;-50.764;2022-07-12T01:57:52;2.70;;;1.15;;
65599;SDS011;52272;-29.642;-50.764;2022-07-12T02:00:24;2.75;;;1.30;;
65599;SDS011;52272;-29.642;-50.764;2022-07-12T02:02:55;2.17;;;1.20;;
65599;SDS011;52272;-29.642;-50.764;2022-07-12T02:05:26;3.65;;;1.25;;
65599;SDS011;52272;-29.642;-50.764;2022-07-12T02:07:57;1.15;;;0.70;;
65599;SDS011;52272;-29.642;-50.764;2022-07-12T02:10:28;2.28;;;1.00;;
65599;SDS011;52272;-29.642;-50.764;2022-07-12T02:13:02;1.85;;;0.70;;
65599;SDS011;52272;-29.642;-50.764;2022-07-12T02:15:33;1.13;;;0.80;;
65599;SDS011;52272;-29.642;-50.764;2022-07-12T02:20:33;2.40;;;0.90;;
65599;SDS011;52272;-29.642;-50.764;2022-07-12T02:23:07;3.50;;;0.98;;
65599;SDS011;52272;-29.642;-50.764;2022-07-12T02:25:37;6.15;;;1.83;;
65599;SDS011;52272;-29.642;-50.764;2022-07-12T02:28:07;2.17;;;0.93;;
65599;SDS011;52272;-29.642;-50.764;2022-07-12T02:30:38;5.15;;;1.20;;
65599;SDS011;52272;-29.642;-50.764;2022-07-12T02:33:08;1.75;;;0.90;;
65599;SDS011;52272;-29.642;-50.764;2022-07-12T02:35:40;2.88;;;0.98;;
65599;SDS011;52272;-29.642;-50.764;2022-07-12T02:38:10;4.00;;;1.05;;
65599;SDS011;52272;-29.642;-50.764;2022-07-12T02:40:40;3.80;;;1.58;;
65599;SDS011;52272;-29.642;-50.764;2022-07-12T02:43:24;4.63;;;0.60;;
65599;SDS011;52272;-29.642;-50.764;2022-07-12T02:46:02;3.05;;;0.75;;
65599;SDS011;52272;-29.642;-50.764;2022-07-12T02:48:34;1.08;;;0.68;;
65599;SDS011;52272;-29.642;-50.764;2022-07-12T02:51:06;1.38;;;0.60;;
65599;SDS011;52272;-29.642;-50.764;2022-07-12T02:53:37;2.72;;;0.68;;
65599;SDS011;52272;-29.642;-50.764;2022-07-12T02:56:09;3.25;;;0.85;;
65599;SDS011;52272;-29.642;-50.764;2022-07-12T02:58:40;1.65;;;0.70;;
65599;SDS011;52272;-29.642;-50.764;2022-07-12T03:01:11;1.50;;;0.47;;
65599;SDS011;52272;-29.642;-50.764;2022-07-12T03:03:42;1.58;;;0.40;;
65599;SDS011;52272;-29.642;-50.764;2022-07-12T03:06:13;1.00;;;0.50;;
65599;SDS011;52272;-29.642;-50.764;2022-07-12T03:08:44;0.80;;;0.35;;
65599;SDS011;52272;-29.642;-50.764;2022-07-12T03:11:15;3.28;;;0.60;;
65599;SDS011;52272;-29.642;-50.764;2022-07-12T03:13:45;2.17;;;0.90;;
65599;SDS011;52272;-29.642;-50.764;2022-07-12T03:16:16;0.73;;;0.73;;
65599;SDS011;52272;-29.642;-50.764;2022-07-12T03:21:16;3.63;;;0.65;;
65599;SDS011;52272;-29.642;-50.764;2022-07-12T03:23:47;0.98;;;0.50;;
65599;SDS011;52272;-29.642;-50.764;2022-07-12T03:26:18;0.65;;;0.50;;
65599;SDS011;52272;-29.642;-50.764;2022-07-12T03:28:48;3.78;;;0.68;;
65599;SDS011;52272;-29.642;-50.764;2022-07-12T03:31:19;3.25;;;0.85;;
65599;SDS011;52272;-29.642;-50.764;2022-07-12T03:33:50;0.50;;;0.50;;
65599;SDS011;52272;-29.642;-50.764;2022-07-12T03:36:20;0.63;;;0.38;;
65599;SDS011;52272;-29.642;-50.764;2022-07-12T03:38:50;1.45;;;0.57;;
65599;SDS011;52272;-29.642;-50.764;2022-07-12T03:41:21;1.23;;;0.82;;
65599;SDS011;52272;-29.642;-50.764;2022-07-12T03:43:51;3.15;;;0.77;;
65599;SDS011;52272;-29.642;-50.764;2022-07-12T03:46:22;1.35;;;0.57;;
65599;SDS011;52272;-29.642;-50.764;2022-07-12T03:48:53;0.60;;;0.32;;
65599;SDS011;52272;-29.642;-50.764;2022-07-12T03:51:28;3.70;;;0.88;;
65599;SDS011;52272;-29.642;-50.764;2022-07-12T03:53:59;4.20;;;0.73;;
65599;SDS011;52272;-29.642;-50.764;2022-07-12T03:59:17;1.65;;;0.45;;
65599;SDS011;52272;-29.642;-50.764;2022-07-12T04:01:48;1.05;;;0.30;;
65599;SDS011;52272;-29.642;-50.764;2022-07-12T04:04:19;0.40;;;0.30;;
65599;SDS011;52272;-29.642;-50.764;2022-07-12T04:06:49;1.55;;;0.75;;
65599;SDS011;52272;-29.642;-50.764;2022-07-12T04:09:20;0.85;;;0.40;;
65599;SDS011;52272;-29.642;-50.764;2022-07-12T04:11:50;0.55;;;0.35;;
65599;SDS011;52272;-29.642;-50.764;2022-07-12T04:14:21;0.63;;;0.30;;
65599;SDS011;52272;-29.642;-50.764;2022-07-12T04:19:22;1.17;;;0.30;;
65599;SDS011;52272;-29.642;-50.764;2022-07-12T04:21:56;0.88;;;0.30;;
65599;SDS011;52272;-29.642;-50.764;2022-07-12T04:24:28;1.95;;;0.40;;
65599;SDS011;52272;-29.642;-50.764;2022-07-12T04:26:58;1.95;;;0.60;;
65599;SDS011;52272;-29.642;-50.764;2022-07-12T04:29:30;1.95;;;0.38;;
65599;SDS011;52272;-29.642;-50.764;2022-07-12T04:32:00;2.13;;;0.60;;
65599;SDS011;52272;-29.642;-50.764;2022-07-12T04:34:32;0.40;;;0.35;;
65599;SDS011;52272;-29.642;-50.764;2022-07-12T04:37:07;1.48;;;0.60;;
65599;SDS011;52272;-29.642;-50.764;2022-07-12T04:39:39;0.82;;;0.60;;
65599;SDS011;52272;-29.642;-50.764;2022-07-12T04:44:39;1.02;;;0.70;;
65599;SDS011;52272;-29.642;-50.764;2022-07-12T04:47:09;1.90;;;0.60;;
65599;SDS011;52272;-29.642;-50.764;2022-07-12T04:49:40;0.60;;;0.55;;
65599;SDS011;52272;-29.642;-50.764;2022-07-12T04:52:10;2.00;;;0.70;;
65599;SDS011;52272;-29.642;-50.764;2022-07-12T04:54:41;2.35;;;1.08;;
65599;SDS011;52272;-29.642;-50.764;2022-07-12T04:57:11;3.97;;;1.33;;
65599;SDS011;52272;-29.642;-50.764;2022-07-12T04:59:45;2.75;;;2.20;;
65599;SDS011;52272;-29.642;-50.764;2022-07-12T05:02:15;3.65;;;2.90;;
65599;SDS011;52272;-29.642;-50.764;2022-07-12T05:04:46;2.92;;;2.60;;
65599;SDS011;52272;-29.642;-50.764;2022-07-12T05:07:16;3.38;;;2.40;;
65599;SDS011;52272;-29.642;-50.764;2022-07-12T05:09:47;2.42;;;1.98;;
65599;SDS011;52272;-29.642;-50.764;2022-07-12T05:12:17;2.28;;;2.08;;
65599;SDS011;52272;-29.642;-50.764;2022-07-12T05:14:48;1.60;;;1.50;;
65599;SDS011;52272;-29.642;-50.764;2022-07-12T05:17:18;1.55;;;1.45;;
65599;SDS011;52272;-29.642;-50.764;2022-07-12T05:19:49;1.88;;;1.40;;
65599;SDS011;52272;-29.642;-50.764;2022-07-12T05:22:20;5.28;;;1.70;;
65599;SDS011;52272;-29.642;-50.764;2022-07-12T05:24:53;2.85;;;1.60;;
65599;SDS011;52272;-29.642;-50.764;2022-07-12T05:27:24;2.47;;;1.50;;
65599;SDS011;52272;-29.642;-50.764;2022-07-12T05:29:54;5.07;;;1.70;;
65599;SDS011;52272;-29.642;-50.764;2022-07-12T05:32:25;2.10;;;1.50;;
65599;SDS011;52272;-29.642;-50.764;2022-07-12T05:34:56;1.90;;;1.73;;
65599;SDS011;52272;-29.642;-50.764;2022-07-12T05:37:27;2.20;;;1.73;;
65599;SDS011;52272;-29.642;-50.764;2022-07-12T05:39:57;1.67;;;1.58;;
65599;SDS011;52272;-29.642;-50.764;2022-07-12T05:42:28;3.13;;;1.33;;
65599;SDS011;52272;-29.642;-50.764;2022-07-12T05:44:59;2.92;;;1.95;;
65599;SDS011;52272;-29.642;-50.764;2022-07-12T05:47:29;1.70;;;1.60;;
65599;SDS011;52272;-29.642;-50.764;2022-07-12T05:50:04;4.25;;;1.48;;
65599;SDS011;52272;-29.642;-50.764;2022-07-12T05:52:35;1.83;;;1.58;;
65599;SDS011;52272;-29.642;-50.764;2022-07-12T05:55:23;1.80;;;1.35;;
65599;SDS011;52272;-29.642;-50.764;2022-07-12T05:57:54;1.40;;;1.20;;
65599;SDS011;52272;-29.642;-50.764;2022-07-12T06:00:24;1.42;;;1.20;;
65599;SDS011;52272;-29.642;-50.764;2022-07-12T06:02:55;2.03;;;1.10;;
65599;SDS011;52272;-29.642;-50.764;2022-07-12T06:05:26;1.45;;;1.38;;
65599;SDS011;52272;-29.642;-50.764;2022-07-12T06:07:56;1.48;;;1.35;;
65599;SDS011;52272;-29.642;-50.764;2022-07-12T06:10:27;5.05;;;1.27;;
65599;SDS011;52272;-29.642;-50.764;2022-07-12T06:15:27;1.60;;;1.15;;
65599;SDS011;52272;-29.642;-50.764;2022-07-12T06:18:01;0.90;;;0.90;;
65599;SDS011;52272;-29.642;-50.764;2022-07-12T06:20:32;1.40;;;0.90;;
65599;SDS011;52272;-29.642;-50.764;2022-07-12T06:23:03;1.10;;;1.00;;
65599;SDS011;52272;-29.642;-50.764;2022-07-12T06:25:33;1.52;;;0.80;;
65599;SDS011;52272;-29.642;-50.764;2022-07-12T06:28:12;0.60;;;0.60;;
65599;SDS011;52272;-29.642;-50.764;2022-07-12T06:30:42;0.60;;;0.55;;
65599;SDS011;52272;-29.642;-50.764;2022-07-12T06:33:13;9.10;;;1.17;;
65599;SDS011;52272;-29.642;-50.764;2022-07-12T06:38:13;2.30;;;0.98;;
65599;SDS011;52272;-29.642;-50.764;2022-07-12T06:40:43;1.45;;;0.90;;
65599;SDS011;52272;-29.642;-50.764;2022-07-12T06:43:14;1.10;;;0.88;;
65599;SDS011;52272;-29.642;-50.764;2022-07-12T06:45:44;0.80;;;0.80;;
65599;SDS011;52272;-29.642;-50.764;2022-07-12T06:48:17;0.80;;;0.80;;
65599;SDS011;52272;-29.642;-50.764;2022-07-12T06:50:48;1.90;;;0.80;;
65599;SDS011;52272;-29.642;-50.764;2022-07-12T06:53:18;1.58;;;0.77;;
65599;SDS011;52272;-29.642;-50.764;2022-07-12T06:55:49;2.83;;;1.20;;
65599;SDS011;52272;-29.642;-50.764;2022-07-12T06:58:20;1.38;;;1.20;;
65599;SDS011;52272;-29.642;-50.764;2022-07-12T07:00:50;1.23;;;1.13;;
65599;SDS011;52272;-29.642;-50.764;2022-07-12T07:03:21;0.93;;;0.88;;
65599;SDS011;52272;-29.642;-50.764;2022-07-12T07:05:52;2.15;;;0.60;;
65599;SDS011;52272;-29.642;-50.764;2022-07-12T07:08:22;1.88;;;0.73;;
65599;SDS011;52272;-29.642;-50.764;2022-07-12T07:10:53;3.83;;;0.88;;
65599;SDS011;52272;-29.642;-50.764;2022-07-12T07:13:24;0.90;;;0.80;;
65599;SDS011;52272;-29.642;-50.764;2022-07-12T07:15:55;1.70;;;0.65;;
65599;SDS011;52272;-29.642;-50.764;2022-07-12T07:18:25;1.17;;;1.00;;
65599;SDS011;52272;-29.642;-50.764;2022-07-12T07:20:57;1.02;;;0.77;;
65599;SDS011;52272;-29.642;-50.764;2022-07-12T07:23:27;1.40;;;0.85;;
65599;SDS011;52272;-29.642;-50.764;2022-07-12T07:25:58;1.88;;;0.73;;
65599;SDS011;52272;-29.642;-50.764;2022-07-12T07:28:28;2.15;;;1.00;;
65599;SDS011;52272;-29.642;-50.764;2022-07-12T07:31:16;2.80;;;1.00;;
65599;SDS011;52272;-29.642;-50.764;2022-07-12T07:33:46;2.03;;;1.48;;
65599;SDS011;52272;-29.642;-50.764;2022-07-12T07:36:18;1.58;;;1.40;;
65599;SDS011;52272;-29.642;-50.764;2022-07-12T07:38:48;1.60;;;1.50;;
65599;SDS011;52272;-29.642;-50.764;2022-07-12T07:41:19;1.67;;;1.58;;
65599;SDS011;52272;-29.642;-50.764;2022-07-12T07:43:49;4.65;;;1.60;;
65599;SDS011;52272;-29.642;-50.764;2022-07-12T07:46:20;2.10;;;1.60;;
65599;SDS011;52272;-29.642;-50.764;2022-07-12T07:51:20;1.25;;;1.15;;
65599;SDS011;52272;-29.642;-50.764;2022-07-12T07:53:50;1.13;;;0.98;;
65599;SDS011;52272;-29.642;-50.764;2022-07-12T07:56:21;3.30;;;1.10;;
65599;SDS011;52272;-29.642;-50.764;2022-07-12T07:58:52;1.83;;;1.40;;
65599;SDS011;52272;-29.642;-50.764;2022-07-12T08:01:22;2.97;;;1.00;;
65599;SDS011;52272;-29.642;-50.764;2022-07-12T08:04:12;0.80;;;0.80;;
65599;SDS011;52272;-29.642;-50.764;2022-07-12T08:06:47;0.70;;;0.70;;
65599;SDS011;52272;-29.642;-50.764;2022-07-12T08:09:19;0.93;;;0.75;;
65599;SDS011;52272;-29.642;-50.764;2022-07-12T08:11:49;0.70;;;0.70;;
65599;SDS011;52272;-29.642;-50.764;2022-07-12T08:14:20;0.70;;;0.70;;
65599;SDS011;52272;-29.642;-50.764;2022-07-12T08:16:50;1.30;;;1.20;;
65599;SDS011;52272;-29.642;-50.764;2022-07-12T08:19:21;1.02;;;1.00;;
65599;SDS011;52272;-29.642;-50.764;2022-07-12T08:21:54;3.90;;;1.10;;
65599;SDS011;52272;-29.642;-50.764;2022-07-12T08:24:25;1.35;;;0.77;;
65599;SDS011;52272;-29.642;-50.764;2022-07-12T08:26:55;1.55;;;0.93;;
65599;SDS011;52272;-29.642;-50.764;2022-07-12T08:29:26;2.33;;;1.17;;
65599;SDS011;52272;-29.642;-50.764;2022-07-12T08:31:56;4.13;;;1.45;;
65599;SDS011;52272;-29.642;-50.764;2022-07-12T08:34:27;1.50;;;1.10;;
65599;SDS011;52272;-29.642;-50.764;2022-07-12T08:36:59;2.90;;;1.30;;
65599;SDS011;52272;-29.642;-50.764;2022-07-12T08:39:29;2.35;;;1.20;;
65599;SDS011;52272;-29.642;-50.764;2022-07-12T08:42:00;1.60;;;1.50;;
65599;SDS011;52272;-29.642;-50.764;2022-07-12T08:44:30;2.35;;;1.90;;
65599;SDS011;52272;-29.642;-50.764;2022-07-12T08:47:01;2.85;;;1.80;;
65599;SDS011;52272;-29.642;-50.764;2022-07-12T08:49:31;2.70;;;1.85;;
65599;SDS011;52272;-29.642;-50.764;2022-07-12T08:54:55;3.50;;;1.77;;
65599;SDS011;52272;-29.642;-50.764;2022-07-12T08:57:29;4.13;;;2.20;;
65599;SDS011;52272;-29.642;-50.764;2022-07-12T09:00:02;2.20;;;1.90;;
65599;SDS011;52272;-29.642;-50.764;2022-07-12T09:02:43;2.95;;;2.17;;
65599;SDS011;52272;-29.642;-50.764;2022-07-12T09:05:25;3.50;;;2.08;;
65599;SDS011;52272;-29.642;-50.764;2022-07-12T09:08:04;1.90;;;1.80;;
65599;SDS011;52272;-29.642;-50.764;2022-07-12T09:10:51;4.70;;;2.20;;
65599;SDS011;52272;-29.642;-50.764;2022-07-12T09:16:21;4.40;;;2.08;;
65599;SDS011;52272;-29.642;-50.764;2022-07-12T09:19:14;2.55;;;1.95;;
65599;SDS011;52272;-29.642;-50.764;2022-07-12T09:21:52;2.30;;;1.70;;
65599;SDS011;52272;-29.642;-50.764;2022-07-12T09:24:26;3.08;;;1.90;;
65599;SDS011;52272;-29.642;-50.764;2022-07-12T09:27:02;1.27;;;1.20;;
65599;SDS011;52272;-29.642;-50.764;2022-07-12T09:29:34;3.92;;;2.13;;
65599;SDS011;52272;-29.642;-50.764;2022-07-12T09:32:27;6.00;;;1.80;;
65599;SDS011;52272;-29.642;-50.764;2022-07-12T09:35:14;2.30;;;1.08;;
65599;SDS011;52272;-29.642;-50.764;2022-07-12T09:38:09;1.52;;;1.20;;
65599;SDS011;52272;-29.642;-50.764;2022-07-12T09:40:39;1.15;;;1.05;;
65599;SDS011;52272;-29.642;-50.764;2022-07-12T09:43:11;1.98;;;1.45;;
65599;SDS011;52272;-29.642;-50.764;2022-07-12T09:45:43;1.95;;;1.52;;
65599;SDS011;52272;-29.642;-50.764;2022-07-12T09:48:16;2.85;;;1.52;;
65599;SDS011;52272;-29.642;-50.764;2022-07-12T09:50:51;2.00;;;1.30;;
65599;SDS011;52272;-29.642;-50.764;2022-07-12T09:53:30;2.83;;;1.83;;
65599;SDS011;52272;-29.642;-50.764;2022-07-12T09:56:04;3.17;;;1.55;;
65599;SDS011;52272;-29.642;-50.764;2022-07-12T09:58:39;2.92;;;1.95;;
65599;SDS011;52272;-29.642;-50.764;2022-07-12T10:01:13;3.50;;;1.40;;
65599;SDS011;52272;-29.642;-50.764;2022-07-12T10:03:46;1.60;;;1.42;;
65599;SDS011;52272;-29.642;-50.764;2022-07-12T10:06:25;1.73;;;1.25;;
65599;SDS011;52272;-29.642;-50.764;2022-07-12T10:09:04;1.83;;;1.55;;
65599;SDS011;52272;-29.642;-50.764;2022-07-12T10:11:36;1.10;;;1.10;;
65599;SDS011;52272;-29.642;-50.764;2022-07-12T10:14:28;1.85;;;0.90;;
65599;SDS011;52272;-29.642;-50.764;2022-07-12T10:16:59;2.80;;;0.50;;
65599;SDS011;52272;-29.642;-50.764;2022-07-12T10:19:33;0.68;;;0.50;;
65599;SDS011;52272;-29.642;-50.764;2022-07-12T10:22:06;1.15;;;0.85;;
65599;SDS011;52272;-29.642;-50.764;2022-07-12T10:24:50;0.85;;;0.38;;
65599;SDS011;52272;-29.642;-50.764;2022-07-12T10:27:29;0.10;;;0.10;;
65599;SDS011;52272;-29.642;-50.764;2022-07-12T10:30:17;0.10;;;0.10;;
65599;SDS011;52272;-29.642;-50.764;2022-07-12T10:32:54;1.95;;;0.57;;
65599;SDS011;52272;-29.642;-50.764;2022-07-12T10:35:30;0.20;;;0.10;;
65599;SDS011;52272;-29.642;-50.764;2022-07-12T10:38:19;0.90;;;0.35;;
65599;SDS011;52272;-29.642;-50.764;2022-07-12T10:40:51;0.50;;;0.50;;
65599;SDS011;52272;-29.642;-50.764;2022-07-12T10:43:26;1.92;;;0.22;;
65599;SDS011;52272;-29.642;-50.764;2022-07-12T10:46:16;1.10;;;0.40;;
65599;SDS011;52272;-29.642;-50.764;2022-07-12T10:48:51;2.25;;;0.20;;
65599;SDS011;52272;-29.642;-50.764;2022-07-12T10:51:41;0.10;;;0.10;;
65599;SDS011;52272;-29.642;-50.764;2022-07-12T10:54:31;0.77;;;0.25;;
65599;SDS011;52272;-29.642;-50.764;2022-07-12T10:57:01;1.98;;;0.40;;
65599;SDS011;52272;-29.642;-50.764;2022-07-12T10:59:36;0.70;;;0.17;;
65599;SDS011;52272;-29.642;-50.764;2022-07-12T11:02:07;0.47;;;0.28;;
65599;SDS011;52272;-29.642;-50.764;2022-07-12T11:04:52;0.85;;;0.30;;
65599;SDS011;52272;-29.642;-50.764;2022-07-12T11:07:23;0.30;;;0.30;;
65599;SDS011;52272;-29.642;-50.764;2022-07-12T11:09:54;0.85;;;0.55;;
65599;SDS011;52272;-29.642;-50.764;2022-07-12T11:12:28;0.20;;;0.20;;
65599;SDS011;52272;-29.642;-50.764;2022-07-12T11:15:02;0.52;;;0.28;;
65599;SDS011;52272;-29.642;-50.764;2022-07-12T11:17:33;0.40;;;0.40;;
65599;SDS011;52272;-29.642;-50.764;2022-07-12T11:20:05;1.38;;;0.40;;
65599;SDS011;52272;-29.642;-50.764;2022-07-12T11:22:41;0.60;;;0.60;;
65599;SDS011;52272;-29.642;-50.764;2022-07-12T11:25:12;2.05;;;0.60;;
65599;SDS011;52272;-29.642;-50.764;2022-07-12T11:27:43;5.47;;;0.68;;
65599;SDS011;52272;-29.642;-50.764;2022-07-12T11:30:15;0.63;;;0.47;;
65599;SDS011;52272;-29.642;-50.764;2022-07-12T11:32:46;1.60;;;1.30;;
65599;SDS011;52272;-29.642;-50.764;2022-07-12T11:35:23;1.38;;;1.00;;
65599;SDS011;52272;-29.642;-50.764;2022-07-12T11:37:57;1.35;;;1.08;;
65599;SDS011;52272;-29.642;-50.764;2022-07-12T11:40:28;0.90;;;0.80;;
65599;SDS011;52272;-29.642;-50.764;2022-07-12T11:43:00;1.30;;;1.20;;
65599;SDS011;52272;-29.642;-50.764;2022-07-12T11:45:33;3.33;;;1.58;;
65599;SDS011;52272;-29.642;-50.764;2022-07-12T11:48:03;1.33;;;1.23;;
65599;SDS011;52272;-29.642;-50.764;2022-07-12T11:50:35;1.45;;;1.15;;
65599;SDS011;52272;-29.642;-50.764;2022-07-12T11:55:41;1.63;;;1.38;;
65599;SDS011;52272;-29.642;-50.764;2022-07-12T11:58:16;1.10;;;0.98;;
65599;SDS011;52272;-29.642;-50.764;2022-07-12T12:00:48;2.83;;;1.10;;
65599;SDS011;52272;-29.642;-50.764;2022-07-12T12:03:21;3.35;;;1.60;;
65599;SDS011;52272;-29.642;-50.764;2022-07-12T12:05:52;5.85;;;2.00;;
65599;SDS011;52272;-29.642;-50.764;2022-07-12T12:08:25;2.13;;;1.75;;
65599;SDS011;52272;-29.642;-50.764;2022-07-12T12:10:56;3.92;;;1.27;;
65599;SDS011;52272;-29.642;-50.764;2022-07-12T12:13:29;1.95;;;1.42;;
65599;SDS011;52272;-29.642;-50.764;2022-07-12T12:16:00;1.30;;;1.20;;
65599;SDS011;52272;-29.642;-50.764;2022-07-12T12:18:38;9.27;;;2.35;;
65599;SDS011;52272;-29.642;-50.764;2022-07-12T12:21:10;2.30;;;1.60;;
65599;SDS011;52272;-29.642;-50.764;2022-07-12T12:23:44;1.92;;;1.55;;
65599;SDS011;52272;-29.642;-50.764;2022-07-12T12:26:18;3.92;;;2.00;;
65599;SDS011;52272;-29.642;-50.764;2022-07-12T12:28:51;2.97;;;1.67;;
65599;SDS011;52272;-29.642;-50.764;2022-07-12T12:31:23;5.50;;;1.80;;
65599;SDS011;52272;-29.642;-50.764;2022-07-12T12:33:54;2.75;;;1.67;;
65599;SDS011;52272;-29.642;-50.764;2022-07-12T12:36:29;2.67;;;1.17;;
65599;SDS011;52272;-29.642;-50.764;2022-07-12T12:39:06;1.17;;;1.08;;
65599;SDS011;52272;-29.642;-50.764;2022-07-12T12:41:38;1.83;;;1.00;;
65599;SDS011;52272;-29.642;-50.764;2022-07-12T12:44:11;1.52;;;1.30;;
65599;SDS011;52272;-29.642;-50.764;2022-07-12T12:46:51;3.42;;;1.55;;
65599;SDS011;52272;-29.642;-50.764;2022-07-12T12:52:24;1.30;;;0.93;;
65599;SDS011;52272;-29.642;-50.764;2022-07-12T12:54:57;1.23;;;1.13;;
65599;SDS011;52272;-29.642;-50.764;2022-07-12T12:57:27;1.38;;;1.10;;
65599;SDS011;52272;-29.642;-50.764;2022-07-12T12:59:58;1.40;;;1.08;;
65599;SDS011;52272;-29.642;-50.764;2022-07-12T13:02:28;1.95;;;1.10;;
65599;SDS011;52272;-29.642;-50.764;2022-07-12T13:04:59;1.35;;;1.25;;
65599;SDS011;52272;-29.642;-50.764;2022-07-12T13:07:30;1.38;;;1.20;;
65599;SDS011;52272;-29.642;-50.764;2022-07-12T13:12:31;4.60;;;2.05;;
65599;SDS011;52272;-29.642;-50.764;2022-07-12T13:15:01;2.15;;;1.77;;
65599;SDS011;52272;-29.642;-50.764;2022-07-12T13:20:03;1.33;;;1.17;;
65599;SDS011;52272;-29.642;-50.764;2022-07-12T13:22:36;1.25;;;0.98;;
65599;SDS011;52272;-29.642;-50.764;2022-07-12T13:25:07;2.85;;;1.55;;
65599;SDS011;52272;-29.642;-50.764;2022-07-12T13:27:39;2.80;;;1.50;;
65599;SDS011;52272;-29.642;-50.764;2022-07-12T13:30:12;3.00;;;1.73;;
65599;SDS011;52272;-29.642;-50.764;2022-07-12T13:32:43;2.33;;;1.55;;
65599;SDS011;52272;-29.642;-50.764;2022-07-12T13:35:14;4.90;;;1.35;;
65599;SDS011;52272;-29.642;-50.764;2022-07-12T13:37:46;4.65;;;1.60;;
65599;SDS011;52272;-29.642;-50.764;2022-07-12T13:40:23;2.28;;;1.40;;
65599;SDS011;52272;-29.642;-50.764;2022-07-12T13:42:54;2.35;;;1.38;;
65599;SDS011;52272;-29.642;-50.764;2022-07-12T13:45:25;2.38;;;0.90;;
65599;SDS011;52272;-29.642;-50.764;2022-07-12T13:50:26;2.58;;;1.08;;
65599;SDS011;52272;-29.642;-50.764;2022-07-12T13:53:00;2.08;;;1.25;;
65599;SDS011;52272;-29.642;-50.764;2022-07-12T13:55:31;2.60;;;1.23;;
65599;SDS011;52272;-29.642;-50.764;2022-07-12T13:58:02;1.10;;;1.00;;
65599;SDS011;52272;-29.642;-50.764;2022-07-12T14:00:33;1.10;;;1.10;;
65599;SDS011;52272;-29.642;-50.764;2022-07-12T14:03:03;0.90;;;0.90;;
65599;SDS011;52272;-29.642;-50.764;2022-07-12T14:05:35;3.15;;;1.10;;
65599;SDS011;52272;-29.642;-50.764;2022-07-12T14:08:06;1.90;;;1.08;;
65599;SDS011;52272;-29.642;-50.764;2022-07-12T14:10:37;1.50;;;1.40;;
65599;SDS011;52272;-29.642;-50.764;2022-07-12T14:15:37;1.80;;;1.20;;
65599;SDS011;52272;-29.642;-50.764;2022-07-12T14:18:07;1.02;;;0.90;;
65599;SDS011;52272;-29.642;-50.764;2022-07-12T14:20:38;3.03;;;1.75;;
65599;SDS011;52272;-29.642;-50.764;2022-07-12T14:23:09;2.28;;;1.50;;
65599;SDS011;52272;-29.642;-50.764;2022-07-12T14:25:42;1.05;;;1.02;;
65599;SDS011;52272;-29.642;-50.764;2022-07-12T14:28:13;1.73;;;1.50;;
65599;SDS011;52272;-29.642;-50.764;2022-07-12T14:30:43;1.65;;;1.45;;
65599;SDS011;52272;-29.642;-50.764;2022-07-12T14:33:14;4.28;;;1.73;;
65599;SDS011;52272;-29.642;-50.764;2022-07-12T14:35:44;1.63;;;1.40;;
65599;SDS011;52272;-29.642;-50.764;2022-07-12T14:38:15;2.42;;;1.40;;
65599;SDS011;52272;-29.642;-50.764;2022-07-12T14:40:46;2.83;;;1.50;;
65599;SDS011;52272;-29.642;-50.764;2022-07-12T14:43:17;1.90;;;1.48;;
65599;SDS011;52272;-29.642;-50.764;2022-07-12T14:45:49;1.45;;;1.35;;
65599;SDS011;52272;-29.642;-50.764;2022-07-12T14:48:19;1.15;;;1.10;;
65599;SDS011;52272;-29.642;-50.764;2022-07-12T14:50:50;1.63;;;1.27;;
65599;SDS011;52272;-29.642;-50.764;2022-07-12T14:53:21;2.92;;;1.10;;
65599;SDS011;52272;-29.642;-50.764;2022-07-12T14:55:52;1.15;;;1.05;;
65599;SDS011;52272;-29.642;-50.764;2022-07-12T14:58:24;2.53;;;1.30;;
65599;SDS011;52272;-29.642;-50.764;2022-07-12T15:00:55;3.55;;;1.30;;
65599;SDS011;52272;-29.642;-50.764;2022-07-12T15:03:26;3.90;;;1.60;;
65599;SDS011;52272;-29.642;-50.764;2022-07-12T15:08:26;1.48;;;1.20;;
65599;SDS011;52272;-29.642;-50.764;2022-07-12T15:10:57;2.97;;;1.45;;
65599;SDS011;52272;-29.642;-50.764;2022-07-12T15:13:30;1.42;;;1.17;;
65599;SDS011;52272;-29.642;-50.764;2022-07-12T15:16:01;2.40;;;1.80;;
65599;SDS011;52272;-29.642;-50.764;2022-07-12T15:18:31;1.80;;;1.30;;
65599;SDS011;52272;-29.642;-50.764;2022-07-12T15:21:03;2.03;;;1.48;;
65599;SDS011;52272;-29.642;-50.764;2022-07-12T15:23:34;2.72;;;1.10;;